createdAt,value
2022-11-07T00:01:12.231Z,9.06
2022-11-07T00:04:14.429Z,9.16
2022-11-07T00:07:16.464Z,9.16
2022-11-07T00:10:18.504Z,9.12
2022-11-07T00:13:20.522Z,8.99
2022-11-07T00:16:22.728Z,9.15
2022-11-07T00:19:24.788Z,9.04
2022-11-07T00:22:26.864Z,9.10
2022-11-07T00:25:34.001Z,9.06
2022-11-07T00:28:41.707Z,9.01
2022-11-07T00:31:43.686Z,8.97
2022-11-07T00:34:46.030Z,8.93
2022-11-07T00:37:48.120Z,8.63
2022-11-07T00:41:01.090Z,8.89
2022-11-07T00:44:03.147Z,8.88
2022-11-07T00:47:05.203Z,8.86
2022-11-07T00:50:08.149Z,8.99
2022-11-07T00:53:10.190Z,9.08
2022-11-07T00:56:14.751Z,8.97
2022-11-07T00:59:16.830Z,8.86
2022-11-07T01:02:18.960Z,8.84
2022-11-07T01:05:21.636Z,9.03
2022-11-07T01:08:23.692Z,9.16
2022-11-07T01:11:27.083Z,9.19
2022-11-07T01:14:29.253Z,9.09
2022-11-07T01:17:31.352Z,9.16
2022-11-07T01:20:33.382Z,8.97
2022-11-07T01:23:36.061Z,9.14
2022-11-07T01:26:38.294Z,9.20
2022-11-07T01:29:40.409Z,9.24
2022-11-07T01:32:42.472Z,9.16
2022-11-07T01:35:44.584Z,9.01
2022-11-07T01:38:48.681Z,9.08
2022-11-07T01:41:50.729Z,9.19
2022-11-07T01:44:58.427Z,9.10
2022-11-07T01:48:00.803Z,9.13
2022-11-07T01:51:03.011Z,9.15
2022-11-07T01:54:05.369Z,9.29
2022-11-07T01:57:11.230Z,9.08
2022-11-07T02:00:16.075Z,8.80
2022-11-07T02:03:18.243Z,8.94
2022-11-07T02:06:43.447Z,8.85
2022-11-07T02:09:45.748Z,9.26
2022-11-07T02:12:47.785Z,9.08
2022-11-07T02:15:49.792Z,9.62
2022-11-07T02:18:51.819Z,9.06
2022-11-07T02:22:07.511Z,9.63
2022-11-07T02:25:15.592Z,9.19
2022-11-07T02:28:17.630Z,9.15
2022-11-07T02:31:19.670Z,9.07
2022-11-07T02:34:21.697Z,9.20
2022-11-07T02:37:33.261Z,9.18
2022-11-07T02:40:35.320Z,9.18
2022-11-07T02:43:39.304Z,9.53
2022-11-07T02:46:41.421Z,9.56
2022-11-07T02:49:43.460Z,9.63
2022-11-07T02:52:45.478Z,9.38
2022-11-07T02:55:47.521Z,9.40
2022-11-07T02:58:49.639Z,9.40
2022-11-07T03:01:52.174Z,9.79
2022-11-07T03:04:54.342Z,9.73
2022-11-07T03:07:56.371Z,9.63
2022-11-07T03:10:58.439Z,9.61
2022-11-07T03:14:00.536Z,9.38
2022-11-07T03:17:02.612Z,9.24
2022-11-07T03:20:05.369Z,8.99
2022-11-07T03:23:07.532Z,9.16
2022-11-07T03:26:09.577Z,9.13
2022-11-07T03:29:11.600Z,9.01
2022-11-07T03:32:13.645Z,9.15
2022-11-07T03:35:15.712Z,9.23
2022-11-07T03:38:17.726Z,8.99
2022-11-07T03:41:19.761Z,9.28
2022-11-07T03:44:21.809Z,9.16
2022-11-07T03:47:23.836Z,9.05
2022-11-07T03:50:25.886Z,9.04
2022-11-07T03:53:28.299Z,9.02
2022-11-07T03:56:30.568Z,9.12
2022-11-07T03:59:32.681Z,9.31
2022-11-07T04:02:34.954Z,9.41
2022-11-07T04:05:37.089Z,9.44
2022-11-07T04:08:39.132Z,9.09
2022-11-07T04:12:00.088Z,8.94
2022-11-07T04:15:20.813Z,8.83
2022-11-07T04:18:22.888Z,8.84
2022-11-07T04:21:24.934Z,8.92
2022-11-07T04:24:26.994Z,8.58
2022-11-07T04:27:43.913Z,8.87
2022-11-07T04:30:45.970Z,8.79
2022-11-07T04:33:48.009Z,8.85
2022-11-07T04:36:50.046Z,8.95
2022-11-07T04:39:52.088Z,9.09
2022-11-07T04:42:54.331Z,8.94
2022-11-07T04:45:56.577Z,9.09
2022-11-07T04:48:58.607Z,9.13
2022-11-07T04:52:00.682Z,9.01
2022-11-07T04:55:02.747Z,8.60
2022-11-07T04:58:04.825Z,8.46
2022-11-07T05:01:06.862Z,8.43
2022-11-07T05:04:08.949Z,8.25
2022-11-07T05:07:10.975Z,8.16
2022-11-07T05:10:27.532Z,8.15
2022-11-07T05:13:29.570Z,8.20
2022-11-07T05:16:31.874Z,8.71
2022-11-07T05:19:33.916Z,8.51
2022-11-07T05:22:56.462Z,8.45
2022-11-07T05:25:59.016Z,8.30
2022-11-07T05:29:01.069Z,8.61
2022-11-07T05:32:03.165Z,8.94
2022-11-07T05:35:06.114Z,9.10
2022-11-07T05:38:08.380Z,9.18
2022-11-07T05:41:11.124Z,9.20
2022-11-07T05:44:13.399Z,8.92
2022-11-07T05:47:15.465Z,9.09
2022-11-07T05:50:17.700Z,8.92
2022-11-07T05:53:21.397Z,8.88
2022-11-07T05:56:23.533Z,8.97
2022-11-07T05:59:25.927Z,9.13
2022-11-07T06:02:28.107Z,9.26
2022-11-07T06:05:30.270Z,8.73
2022-11-07T06:08:32.327Z,8.81
2022-11-07T06:11:34.357Z,8.64
2022-11-07T06:14:36.400Z,8.66
2022-11-07T06:17:38.626Z,8.62
2022-11-07T06:20:40.810Z,8.80
2022-11-07T06:23:43.430Z,9.20
2022-11-07T06:26:45.513Z,9.36
2022-11-07T06:29:47.563Z,9.23
2022-11-07T06:32:49.624Z,9.00
2022-11-07T06:35:51.712Z,8.16
2022-11-07T06:38:53.976Z,7.97
2022-11-07T06:41:56.008Z,7.91
2022-11-07T06:44:58.200Z,7.90
2022-11-07T06:48:00.236Z,7.88
2022-11-07T06:51:03.861Z,7.78
2022-11-07T06:54:05.951Z,7.96
2022-11-07T06:57:08.127Z,8.09
2022-11-07T07:00:11.134Z,8.03
2022-11-07T07:03:13.720Z,8.16
2022-11-07T07:06:16.930Z,8.15
2022-11-07T07:09:18.983Z,8.23
2022-11-07T07:12:21.014Z,8.23
2022-11-07T07:15:23.291Z,8.22
2022-11-07T07:18:25.732Z,8.01
2022-11-07T07:21:27.893Z,7.75
2022-11-07T07:24:29.918Z,7.90
2022-11-07T07:27:31.997Z,7.81
2022-11-07T07:30:34.025Z,7.86
2022-11-07T07:33:36.453Z,7.90
2022-11-07T07:36:38.507Z,8.84
2022-11-07T07:39:40.694Z,9.13
2022-11-07T07:42:43.479Z,8.98
2022-11-07T07:45:45.636Z,8.88
2022-11-07T07:48:47.670Z,8.65
2022-11-07T07:51:49.806Z,9.03
2022-11-07T07:54:51.862Z,8.84
2022-11-07T07:57:54.045Z,8.53
2022-11-07T08:00:59.115Z,8.57
2022-11-07T08:04:02.773Z,8.08
2022-11-07T08:07:05.095Z,8.23
2022-11-07T08:10:35.213Z,7.99
2022-11-07T08:13:30.409Z,8.13
2022-11-07T08:16:32.660Z,8.43
2022-11-07T08:19:34.698Z,8.16
2022-11-07T08:22:37.989Z,8.21
2022-11-07T08:25:40.081Z,8.11
2022-11-07T08:28:42.257Z,8.27
2022-11-07T08:31:44.330Z,8.32
2022-11-07T08:34:46.416Z,8.08
2022-11-07T08:37:48.460Z,8.14
2022-11-07T08:40:50.986Z,8.39
2022-11-07T08:43:53.017Z,8.42
2022-11-07T08:46:55.518Z,8.51
2022-11-07T08:49:57.563Z,8.76
2022-11-07T08:53:02.954Z,8.64
2022-11-07T08:56:16.488Z,8.72
2022-11-07T08:59:18.731Z,8.67
2022-11-07T09:05:42.982Z,8.40
2022-11-07T09:08:45.427Z,8.41
2022-11-07T09:11:47.497Z,8.36
2022-11-07T09:14:49.623Z,8.63
2022-11-07T09:17:51.778Z,8.83
2022-11-07T09:20:55.168Z,8.98
2022-11-07T09:23:57.733Z,9.21
2022-11-07T09:26:59.778Z,9.51
2022-11-07T09:30:03.081Z,9.55
2022-11-07T09:33:05.154Z,9.40
2022-11-07T09:36:07.718Z,9.61
2022-11-07T09:39:09.773Z,9.70
2022-11-07T09:42:52.153Z,9.64
2022-11-07T09:46:42.766Z,9.52
2022-11-07T09:49:50.888Z,9.65
2022-11-07T09:53:11.963Z,9.99
2022-11-07T09:56:14.137Z,10.43
2022-11-07T09:59:29.636Z,10.36
2022-11-07T10:02:32.875Z,9.83
2022-11-07T10:05:58.924Z,10.04
2022-11-07T10:09:45.494Z,10.28
2022-11-07T10:13:15.692Z,10.35
2022-11-07T10:16:36.562Z,10.52
2022-11-07T10:20:08.545Z,10.40
2022-11-07T10:23:50.340Z,10.51
2022-11-07T10:26:53.562Z,11.15
2022-11-07T10:29:56.333Z,11.79
2022-11-07T10:33:21.180Z,11.55
2022-11-07T10:36:28.460Z,11.00
2022-11-07T10:39:31.095Z,11.22
2022-11-07T10:42:33.137Z,11.11
2022-11-07T10:45:35.248Z,11.46
2022-11-07T10:48:37.367Z,11.36
2022-11-07T10:51:41.302Z,11.80
2022-11-07T10:54:44.963Z,11.49
2022-11-07T10:57:52.176Z,11.75
2022-11-07T11:01:08.604Z,11.68
2022-11-07T11:04:20.978Z,11.92
2022-11-07T11:07:39.070Z,12.40
2022-11-07T11:10:41.036Z,12.44
2022-11-07T11:13:43.181Z,12.61
2022-11-07T11:16:47.112Z,12.60
2022-11-07T11:19:53.382Z,12.50
2022-11-07T11:22:55.442Z,12.93
2022-11-07T11:26:05.905Z,12.84
2022-11-07T11:29:12.337Z,13.24
2022-11-07T11:32:41.521Z,13.35
2022-11-07T11:36:12.054Z,13.28
2022-11-07T11:39:49.615Z,13.03
2022-11-07T11:42:56.934Z,12.91
2022-11-07T11:46:27.981Z,12.92
2022-11-07T11:49:53.657Z,13.12
2022-11-07T11:52:55.739Z,12.57
2022-11-07T11:56:06.669Z,12.57
2022-11-07T11:59:29.634Z,12.92
2022-11-07T12:02:45.584Z,12.66
2022-11-07T12:05:56.429Z,12.61
2022-11-07T12:09:24.332Z,12.83
2022-11-07T12:12:53.526Z,12.57
2022-11-07T12:16:23.329Z,12.79
2022-11-07T12:19:54.449Z,12.73
2022-11-07T12:23:38.339Z,12.71
2022-11-07T12:27:03.427Z,12.74
2022-11-07T12:30:33.391Z,12.79
2022-11-07T12:34:00.700Z,12.82
2022-11-07T12:37:23.800Z,12.80
2022-11-07T12:41:11.597Z,12.91
2022-11-07T12:44:25.358Z,12.85
2022-11-07T12:47:33.964Z,13.16
2022-11-07T12:50:59.937Z,13.39
2022-11-07T12:54:16.531Z,13.47
2022-11-07T12:57:27.837Z,13.36
2022-11-07T13:00:30.672Z,13.74
2022-11-07T13:04:16.329Z,13.73
2022-11-07T13:07:26.016Z,13.84
2022-11-07T13:10:42.101Z,14.55
2022-11-07T13:14:00.553Z,14.58
2022-11-07T13:17:15.514Z,14.35
2022-11-07T13:20:28.254Z,14.65
2022-11-07T13:23:30.527Z,16.15
2022-11-07T13:26:46.984Z,16.14
2022-11-07T13:29:50.245Z,16.27
2022-11-07T13:32:52.359Z,18.20
2022-11-07T13:35:59.985Z,16.97
2022-11-07T13:39:02.619Z,15.24
2022-11-07T13:42:04.689Z,15.46
2022-11-07T13:45:31.342Z,17.21
2022-11-07T13:48:57.859Z,16.27
2022-11-07T13:52:06.025Z,15.87
2022-11-07T13:55:20.520Z,15.85
2022-11-07T13:58:22.641Z,14.83
2022-11-07T14:01:24.947Z,14.57
2022-11-07T14:04:28.382Z,14.29
2022-11-07T14:07:41.272Z,17.15
2022-11-07T14:10:48.178Z,14.76
2022-11-07T14:13:53.674Z,15.53
2022-11-07T14:17:00.655Z,16.16
2022-11-07T14:20:14.233Z,15.02
2022-11-07T14:23:16.955Z,14.52
2022-11-07T14:26:23.300Z,15.21
2022-11-07T14:29:25.413Z,14.05
2022-11-07T14:32:31.736Z,14.08
2022-11-07T14:35:35.231Z,14.29
2022-11-07T14:38:44.743Z,14.22
2022-11-07T14:41:46.986Z,15.44
2022-11-07T14:44:55.372Z,15.56
2022-11-07T14:47:58.186Z,15.02
2022-11-07T14:51:00.277Z,15.60
2022-11-07T14:54:09.924Z,15.02
2022-11-07T14:57:12.484Z,16.35
2022-11-07T15:00:17.665Z,16.75
2022-11-07T15:03:22.450Z,15.84
2022-11-07T15:06:40.841Z,15.88
2022-11-07T15:09:42.937Z,15.64
2022-11-07T15:12:53.350Z,16.12
2022-11-07T15:16:07.070Z,16.38
2022-11-07T15:19:16.127Z,14.69
2022-11-07T15:22:26.087Z,14.64
2022-11-07T15:25:40.197Z,14.77
2022-11-07T15:28:42.145Z,14.36
2022-11-07T15:31:50.422Z,14.23
2022-11-07T15:38:23.274Z,13.80
2022-11-07T15:41:25.465Z,13.84
2022-11-07T15:44:27.645Z,13.81
2022-11-07T15:47:29.760Z,13.58
2022-11-07T15:50:32.299Z,13.47
2022-11-07T15:53:34.451Z,13.32
2022-11-07T15:56:36.680Z,13.27
2022-11-07T15:59:39.012Z,13.16
2022-11-07T16:02:41.455Z,13.11
2022-11-07T16:05:45.220Z,13.00
2022-11-07T16:08:47.372Z,12.92
2022-11-07T16:11:49.457Z,12.88
2022-11-07T16:14:51.742Z,12.83
2022-11-07T16:17:53.870Z,12.92
2022-11-07T16:20:56.004Z,12.68
2022-11-07T16:23:58.364Z,12.94
2022-11-07T16:27:01.277Z,12.81
2022-11-07T16:30:07.024Z,12.84
2022-11-07T16:33:10.929Z,13.02
2022-11-07T16:36:25.357Z,13.02
2022-11-07T16:39:27.441Z,12.84
2022-11-07T16:42:29.548Z,12.84
2022-11-07T16:45:31.645Z,12.96
2022-11-07T16:48:35.948Z,12.89
2022-11-07T16:51:38.030Z,12.78
2022-11-07T16:54:40.112Z,12.89
2022-11-07T16:57:42.370Z,12.98
2022-11-07T17:00:44.598Z,13.05
2022-11-07T17:03:46.736Z,12.83
2022-11-07T17:06:48.893Z,12.80
2022-11-07T17:09:51.128Z,12.72
2022-11-07T17:12:53.254Z,12.65
2022-11-07T17:15:55.401Z,12.56
2022-11-07T17:18:57.525Z,12.61
2022-11-07T17:22:01.397Z,12.54
2022-11-07T17:25:03.642Z,12.54
2022-11-07T17:28:06.745Z,12.59
2022-11-07T17:31:09.086Z,12.52
2022-11-07T17:34:11.440Z,12.45
2022-11-07T17:37:17.940Z,12.55
2022-11-07T17:40:26.789Z,12.44
2022-11-07T17:43:28.859Z,12.53
2022-11-07T17:46:33.212Z,12.19
2022-11-07T17:49:35.456Z,12.25
2022-11-07T17:52:37.734Z,11.95
2022-11-07T17:55:39.808Z,12.00
2022-11-07T17:58:41.863Z,12.02
2022-11-07T18:01:44.325Z,11.89
2022-11-07T18:04:46.761Z,11.85
2022-11-07T18:07:48.886Z,11.77
2022-11-07T18:10:56.300Z,11.79
2022-11-07T18:13:59.483Z,11.89
2022-11-07T18:17:01.626Z,11.80
2022-11-07T18:20:04.343Z,11.65
2022-11-07T18:23:06.446Z,11.53
2022-11-07T18:26:20.638Z,11.52
2022-11-07T18:29:22.822Z,11.71
2022-11-07T18:32:24.895Z,11.67
2022-11-07T18:35:26.974Z,11.60
2022-11-07T18:38:29.164Z,11.77
2022-11-07T18:41:31.237Z,11.72
2022-11-07T18:44:33.262Z,11.67
2022-11-07T18:47:35.329Z,11.62
2022-11-07T18:50:39.902Z,11.64
2022-11-07T18:53:42.856Z,11.72
2022-11-07T18:56:45.674Z,11.73
2022-11-07T18:59:47.749Z,11.89
2022-11-07T19:02:50.838Z,11.82
2022-11-07T19:05:59.889Z,11.90
2022-11-07T19:09:02.077Z,11.95
2022-11-07T19:12:04.394Z,11.96
2022-11-07T19:15:07.421Z,11.87
2022-11-07T19:18:09.474Z,12.02
2022-11-07T19:21:18.905Z,11.98
2022-11-07T19:24:27.085Z,12.09
2022-11-07T19:27:30.930Z,12.30
2022-11-07T19:30:36.042Z,12.32
2022-11-07T19:33:38.388Z,12.29
2022-11-07T19:36:40.460Z,12.23
2022-11-07T19:39:42.589Z,12.31
2022-11-07T19:42:44.655Z,12.32
2022-11-07T19:45:48.038Z,12.44
2022-11-07T19:48:50.443Z,12.41
2022-11-07T19:51:52.566Z,12.35
2022-11-07T19:54:54.763Z,12.30
2022-11-07T19:57:56.967Z,12.45
2022-11-07T20:00:59.172Z,12.50
2022-11-07T20:04:01.597Z,12.55
2022-11-07T20:07:04.117Z,12.55
2022-11-07T20:10:08.720Z,12.44
2022-11-07T20:13:10.785Z,12.53
2022-11-07T20:16:12.864Z,12.57
2022-11-07T20:19:16.272Z,12.45
2022-11-07T20:22:18.392Z,12.45
2022-11-07T20:25:20.465Z,12.52
2022-11-07T20:28:22.871Z,12.50
2022-11-07T20:31:33.196Z,12.37
2022-11-07T20:34:35.289Z,12.48
2022-11-07T20:37:37.404Z,12.37
2022-11-07T20:40:39.462Z,12.31
2022-11-07T20:43:43.673Z,12.55
2022-11-07T20:46:45.968Z,12.66
2022-11-07T20:49:48.039Z,12.47
2022-11-07T20:52:50.108Z,12.66
2022-11-07T20:55:52.155Z,12.47
2022-11-07T20:58:54.325Z,12.67
2022-11-07T21:02:01.765Z,12.72
2022-11-07T21:05:21.147Z,12.81
2022-11-07T21:08:23.261Z,12.68
2022-11-07T21:11:25.487Z,12.78
2022-11-07T21:14:27.748Z,12.70
2022-11-07T21:17:29.866Z,12.57
2022-11-07T21:20:31.963Z,12.78
2022-11-07T21:23:34.343Z,12.75
2022-11-07T21:26:38.998Z,12.68
2022-11-07T21:29:41.090Z,12.49
2022-11-07T21:32:43.196Z,12.81
2022-11-07T21:35:45.252Z,12.62
2022-11-07T21:38:47.456Z,12.72
2022-11-07T21:41:49.541Z,12.72
2022-11-07T21:44:51.651Z,12.61
2022-11-07T21:47:53.714Z,12.69
2022-11-07T21:50:55.752Z,12.42
2022-11-07T21:53:58.326Z,12.64
2022-11-07T21:57:00.413Z,12.77
2022-11-07T22:00:04.511Z,12.55
2022-11-07T22:03:06.516Z,12.58
2022-11-07T22:06:10.426Z,12.71
2022-11-07T22:09:18.008Z,12.56
2022-11-07T22:12:19.944Z,12.47
2022-11-07T22:15:22.006Z,12.62
2022-11-07T22:18:24.054Z,12.46
2022-11-07T22:21:26.099Z,12.34
2022-11-07T22:24:28.213Z,12.23
2022-11-07T22:27:30.233Z,12.27
2022-11-07T22:30:32.341Z,12.17
2022-11-07T22:33:34.550Z,12.20
2022-11-07T22:36:36.668Z,12.16
2022-11-07T22:39:38.698Z,12.13
2022-11-07T22:42:40.751Z,11.91
2022-11-07T22:45:42.820Z,11.89
2022-11-07T22:48:45.529Z,11.79
2022-11-07T22:51:47.768Z,11.92
2022-11-07T22:54:49.826Z,12.02
2022-11-07T22:57:54.856Z,12.12
2022-11-07T23:00:56.944Z,12.01
2022-11-07T23:03:59.297Z,11.99
2022-11-07T23:07:01.359Z,11.96
2022-11-07T23:10:04.515Z,12.38
2022-11-07T23:13:06.589Z,12.01
2022-11-07T23:16:22.749Z,11.96
2022-11-07T23:19:25.729Z,12.08
2022-11-07T23:22:32.171Z,11.85
2022-11-07T23:25:36.189Z,11.90
2022-11-07T23:28:39.104Z,12.01
2022-11-07T23:31:45.511Z,11.94
2022-11-07T23:34:47.608Z,11.85
2022-11-07T23:37:50.077Z,11.78
2022-11-07T23:40:52.105Z,11.76
2022-11-07T23:43:54.145Z,11.90
2022-11-07T23:47:15.072Z,11.69
2022-11-07T23:50:36.045Z,11.66
2022-11-07T23:53:57.045Z,11.70
2022-11-07T23:56:59.124Z,11.74
